Cockburnspath, United Kingdom
Current Conditions -  °F | °C
As of 12:50 AM on Thursday 23 Oct 2014 (Local Time) from EGQL Reporting Station
Broken Clouds Broken Clouds  
Wind Chill: 52°   Ceiling: 3300
Heat Index: 52°   Visibility: 6mi
Dew Point: 50°   Wind: 20mph
Humidity: 94%   Direction: 230°SW
Pressure: 29.83"   Gusts: NA
Location:  55.93°N, 2.36°W
Report Text: EGQL 222350Z 23017KT 9999 FEW013 BKN033 11/10 Q1010 BLU
Loading
Personal Weather Stations






























Interactive Weather Map
Tropical Storm Tracking
New forecast layout! Learn more

10-Day Weather Forecast

Advertisements
Track Severe Weather on mobile